Airfield :
LOGIN :

Register | Disclaimer

   EN    FR    IT 

 










Legend :    VFR   Marginal VFR   IFR   Intensive IFR   Very Intensive IFR
Visi :
Ceiling :
>= 8 km
>= 3000ft
5 to 8 km
1000 to 3000 ft
1500m to 5 km
500 to 1000 ft
800 to 1500m
200 to 500 ft
< 800m
< 200 ft
Symbols :   Thunderstorms  Fog  Heavy snow  Heavy precipitations  Wind > 20 kt
SIGMETs :     Misc.  Thunderstorms  Icing  Turbulence  Mountain Waves  Volcanic Ashes







- Airport Elevation : 90 ft
- IATA code : NTE
- Download approach charts


LFRS - Nantes

CURRENT METAR :
  • 200130Z AUTO 19002KT 0400 0350 R03/0400N R21/0500D FG VV/// 09/08 Q1023 TEMPO 0300 NSC

EXPIRED METARs :
  • 200100Z AUTO 16002KT 0450 0350 R03/0500D R21/0500D FG VV/// 09/08 Q1024 BECMG 1000 BCFG NSC
  • 200030Z AUTO 20002KT 9999 2100 BKN001 09/08 Q1024 BECMG 1000 BCFG NSC
  • 200000Z AUTO 00000KT 9000 NSC 09/09 Q1024 BECMG 1000 BCFG
  • 192330Z AUTO 00000KT 9999 4100 NSC 09/09 Q1024 BECMG 1000 BCFG
  • 192300Z AUTO 00000KT CAVOK 09/08 Q1024 NOSIG

TAF TAF LFRS
Valid from the 20 at 00:00 until the 21 at 06:00 UTC


192300Z 2000/2106 VRB02KT CAVOK
BECMG 2001/2003 1000 BCFG
PROB40 2003/2007 0300 VV///
BECMG 2007/2009 9999 NSW BKN030
BECMG 2011/2013 20006KT
BECMG 2015/2017 CAVOK
BECMG 2018/2021 VRB03KT
ATIS : +33 2 40 05 12 74
No reported NOTAMs for that airfield.



MET'MAP, your aeronautical weather chart ! - Copyright ORBIFLY December 2007 - Disclaimer

ORBIFLY MET'MAP TEAM :

Programming & Development : Alexandra Zaïnal
Concept & Development : Baudouin d'Aumeries
Co-Development & Prog : Marc-Olivier Méhu
Technical & hardware support : Manuel Goepfert

Contact : metmap@orbifly.com




SOURCES & CREDITS :

   NOAA